createdAt,value
2018-07-08T00:00:21.040Z,91.40
2018-07-08T00:02:51.056Z,91.40
2018-07-08T00:05:20.528Z,91.50
2018-07-08T00:10:18.805Z,91.50
2018-07-08T00:12:48.081Z,91.50
2018-07-08T00:15:18.045Z,91.50
2018-07-08T00:17:47.317Z,91.40
2018-07-08T00:20:16.400Z,91.50
2018-07-08T00:22:45.609Z,91.60
2018-07-08T00:25:14.682Z,91.70
2018-07-08T00:27:44.054Z,91.90
2018-07-08T00:30:13.451Z,91.80
2018-07-08T00:32:42.752Z,92.00
2018-07-08T00:35:11.930Z,92.10
2018-07-08T00:37:41.082Z,92.10
2018-07-08T00:40:10.626Z,92.40
2018-07-08T00:42:39.901Z,92.40
2018-07-08T00:45:09.119Z,92.50
2018-07-08T00:47:38.317Z,92.60
2018-07-08T00:50:07.804Z,92.70
2018-07-08T00:52:36.876Z,92.80
2018-07-08T00:55:06.083Z,92.90
2018-07-08T00:57:35.338Z,93.00
2018-07-08T01:00:04.605Z,93.10
2018-07-08T01:02:33.711Z,93.30
2018-07-08T01:05:03.704Z,93.40
2018-07-08T01:07:33.505Z,93.50
2018-07-08T01:10:02.697Z,93.50
2018-07-08T01:12:33.156Z,93.50
2018-07-08T01:15:02.314Z,93.50
2018-07-08T01:17:31.431Z,93.90
2018-07-08T01:20:01.176Z,93.80
2018-07-08T01:22:30.784Z,93.90
2018-07-08T01:25:15.870Z,94.10
2018-07-08T01:27:44.965Z,94.10
2018-07-08T01:30:15.183Z,94.30
2018-07-08T01:32:44.443Z,94.30
2018-07-08T01:35:14.145Z,94.40
2018-07-08T01:37:44.377Z,94.40
2018-07-08T01:40:14.105Z,94.50
2018-07-08T01:42:43.931Z,94.50
2018-07-08T01:45:13.193Z,94.60
2018-07-08T01:47:43.809Z,94.70
2018-07-08T01:50:13.848Z,94.70
2018-07-08T01:52:43.876Z,94.80
2018-07-08T01:55:13.464Z,94.90
2018-07-08T01:57:42.673Z,95.00
2018-07-08T02:02:41.060Z,95.00
2018-07-08T02:05:10.138Z,95.10
2018-07-08T02:07:39.354Z,95.10
2018-07-08T02:10:08.794Z,95.30
2018-07-08T02:12:38.248Z,95.80
2018-07-08T02:15:07.518Z,95.50
2018-07-08T02:17:36.893Z,95.70
2018-07-08T02:20:06.773Z,95.70
2018-07-08T02:22:35.985Z,95.80
2018-07-08T02:25:05.290Z,95.80
2018-07-08T02:27:34.973Z,95.80
2018-07-08T02:30:04.190Z,95.90
2018-07-08T02:32:33.528Z,95.80
2018-07-08T02:35:03.262Z,96.30
2018-07-08T02:37:32.373Z,96.00
2018-07-08T02:40:01.710Z,96.00
2018-07-08T02:42:30.984Z,96.10
2018-07-08T02:45:01.174Z,96.10
2018-07-08T02:47:31.173Z,96.20
2018-07-08T02:50:01.769Z,96.30
2018-07-08T02:52:31.110Z,96.40
2018-07-08T02:55:00.697Z,96.30
2018-07-08T02:57:29.877Z,96.40
2018-07-08T02:59:58.991Z,96.50
2018-07-08T03:02:28.168Z,96.70
2018-07-08T03:04:57.232Z,96.70
2018-07-08T03:07:26.555Z,96.80
2018-07-08T03:09:56.905Z,96.70
2018-07-08T03:12:26.712Z,96.80
2018-07-08T03:14:55.888Z,96.80
2018-07-08T03:17:25.725Z,96.80
2018-07-08T03:19:54.890Z,96.80
2018-07-08T03:22:23.883Z,96.90
2018-07-08T03:24:53.080Z,96.90
2018-07-08T03:27:22.272Z,97.20
2018-07-08T03:29:51.351Z,97.00
2018-07-08T03:32:20.345Z,97.00
2018-07-08T03:34:49.388Z,96.90
2018-07-08T03:37:18.635Z,97.00
2018-07-08T03:39:47.860Z,97.10
2018-07-08T03:42:17.624Z,97.10
2018-07-08T03:44:47.401Z,97.40
2018-07-08T03:47:16.550Z,97.20
2018-07-08T03:49:45.649Z,97.10
2018-07-08T03:52:14.776Z,97.10
2018-07-08T03:54:44.213Z,97.00
2018-07-08T03:57:13.471Z,97.00
2018-07-08T03:59:42.639Z,97.10
2018-07-08T04:02:11.903Z,97.00
2018-07-08T04:04:42.193Z,96.90
2018-07-08T04:07:12.346Z,97.00
2018-07-08T04:09:41.573Z,96.90
2018-07-08T04:12:12.285Z,96.90
2018-07-08T04:14:41.441Z,97.00
2018-07-08T04:17:10.500Z,96.90
2018-07-08T04:19:40.474Z,97.00
2018-07-08T04:22:10.233Z,96.70
2018-07-08T04:24:39.498Z,96.70
2018-07-08T04:27:08.654Z,96.60
2018-07-08T04:29:37.670Z,96.50
2018-07-08T04:32:06.912Z,96.50
2018-07-08T04:34:36.261Z,96.20
2018-07-08T04:37:05.953Z,96.20
2018-07-08T04:39:35.056Z,96.10
2018-07-08T04:42:04.376Z,96.10
2018-07-08T04:44:33.543Z,96.20
2018-07-08T04:47:02.772Z,96.20
2018-07-08T04:49:32.084Z,96.20
2018-07-08T04:52:01.366Z,96.30
2018-07-08T04:54:30.529Z,96.20
2018-07-08T04:57:00.059Z,96.20
2018-07-08T04:59:29.072Z,96.10
2018-07-08T05:01:58.219Z,96.10
2018-07-08T05:04:27.340Z,96.00
2018-07-08T05:06:56.517Z,96.00
2018-07-08T05:09:25.757Z,95.90
2018-07-08T05:11:55.199Z,95.90
2018-07-08T05:14:25.789Z,95.90
2018-07-08T05:16:54.812Z,95.90
2018-07-08T05:19:24.484Z,95.90
2018-07-08T05:21:53.951Z,95.80
2018-07-08T05:24:23.821Z,95.70
2018-07-08T05:26:53.140Z,95.70
2018-07-08T05:29:22.257Z,95.60
2018-07-08T05:31:52.812Z,95.50
2018-07-08T05:34:21.894Z,95.50
2018-07-08T05:36:52.047Z,95.70
2018-07-08T05:39:21.498Z,95.20
2018-07-08T05:41:51.583Z,95.20
2018-07-08T05:44:21.202Z,95.10
2018-07-08T05:46:50.861Z,95.00
2018-07-08T05:49:21.808Z,94.70
2018-07-08T05:51:50.915Z,94.40
2018-07-08T05:54:22.511Z,94.40
2018-07-08T05:56:51.743Z,94.40
2018-07-08T05:59:22.697Z,94.20
2018-07-08T06:01:53.901Z,94.20
2018-07-08T06:04:25.686Z,94.10
2018-07-08T06:06:55.799Z,93.80
2018-07-08T06:09:25.859Z,93.00
2018-07-08T06:11:56.783Z,92.80
2018-07-08T06:14:27.480Z,92.70
2018-07-08T06:16:57.204Z,92.40
2018-07-08T06:19:26.424Z,92.40
2018-07-08T06:21:55.698Z,92.30
2018-07-08T06:24:25.161Z,92.00
2018-07-08T06:26:55.632Z,92.00
2018-07-08T06:29:24.833Z,91.90
2018-07-08T06:31:54.048Z,91.70
2018-07-08T06:34:23.599Z,92.00
2018-07-08T06:36:53.650Z,91.20
2018-07-08T06:39:23.072Z,91.20
2018-07-08T06:41:52.735Z,91.40
2018-07-08T06:44:24.161Z,91.60
2018-07-08T06:46:55.508Z,90.80
2018-07-08T06:49:25.839Z,90.90
2018-07-08T06:51:55.118Z,90.20
2018-07-08T06:54:25.070Z,89.60
2018-07-08T06:56:54.835Z,90.00
2018-07-08T06:59:24.284Z,89.20
2018-07-08T07:01:54.031Z,89.20
2018-07-08T07:04:23.782Z,89.90
2018-07-08T07:06:53.768Z,89.00
2018-07-08T07:09:23.332Z,87.70
2018-07-08T07:11:52.754Z,83.90
2018-07-08T07:14:21.933Z,80.20
2018-07-08T07:16:51.465Z,78.90
2018-07-08T07:19:21.638Z,78.90
2018-07-08T07:21:50.819Z,79.30
2018-07-08T07:24:22.560Z,78.40
2018-07-08T07:26:52.331Z,78.20
2018-07-08T07:29:22.268Z,78.10
2018-07-08T07:31:51.740Z,77.80
2018-07-08T07:34:21.072Z,77.70
2018-07-08T07:36:50.528Z,73.70
2018-07-08T07:39:19.802Z,73.20
2018-07-08T07:44:19.848Z,74.60
2018-07-08T07:46:49.414Z,73.90
2018-07-08T07:49:18.635Z,74.40
2018-07-08T07:51:47.960Z,74.10
2018-07-08T07:54:17.103Z,73.20
2018-07-08T07:56:46.217Z,72.10
2018-07-08T07:59:15.648Z,72.10
2018-07-08T08:01:44.977Z,73.10
2018-07-08T08:04:15.120Z,73.60
2018-07-08T08:06:44.857Z,72.50
2018-07-08T08:09:14.272Z,72.50
2018-07-08T08:11:44.148Z,73.60
2018-07-08T08:14:13.268Z,71.60
2018-07-08T08:16:42.365Z,72.40
2018-07-08T08:19:13.028Z,72.00
2018-07-08T08:21:43.507Z,71.20
2018-07-08T08:24:13.478Z,70.30
2018-07-08T08:26:44.249Z,70.10
2018-07-08T08:29:15.138Z,69.40
2018-07-08T08:31:45.390Z,71.20
2018-07-08T08:35:20.295Z,69.80
2018-07-08T08:37:51.326Z,71.00
2018-07-08T08:40:21.670Z,67.30
2018-07-08T08:42:50.852Z,66.20
2018-07-08T08:45:21.712Z,66.30
2018-07-08T08:47:51.768Z,64.30
2018-07-08T08:50:21.628Z,65.10
2018-07-08T08:52:50.865Z,62.50
2018-07-08T08:55:20.089Z,62.50
2018-07-08T08:57:49.180Z,61.90
2018-07-08T09:00:19.245Z,63.00
2018-07-08T09:02:49.497Z,62.90
2018-07-08T09:05:19.617Z,61.00
2018-07-08T09:07:49.072Z,60.30
2018-07-08T09:10:18.695Z,59.50
2018-07-08T09:12:47.973Z,61.10
2018-07-08T09:15:18.102Z,60.30
2018-07-08T09:17:47.192Z,57.60
2018-07-08T09:20:16.509Z,58.80
2018-07-08T09:22:45.641Z,58.10
2018-07-08T09:25:15.094Z,55.80
2018-07-08T09:27:45.167Z,55.00
2018-07-08T09:30:14.292Z,56.10
2018-07-08T09:32:43.911Z,55.60
2018-07-08T09:35:13.209Z,57.30
2018-07-08T09:37:42.487Z,57.40
2018-07-08T09:40:11.810Z,57.50
2018-07-08T09:42:40.965Z,53.40
2018-07-08T09:45:10.408Z,51.20
2018-07-08T09:47:39.701Z,51.60
2018-07-08T09:52:37.733Z,51.60
2018-07-08T09:55:07.510Z,55.30
2018-07-08T09:57:37.312Z,53.00
2018-07-08T10:00:07.342Z,52.10
2018-07-08T10:02:37.800Z,51.70
2018-07-08T10:05:08.109Z,51.80
2018-07-08T10:07:37.452Z,52.30
2018-07-08T10:10:06.684Z,52.00
2018-07-08T10:12:36.475Z,51.00
2018-07-08T10:15:05.949Z,49.70
2018-07-08T10:17:35.339Z,51.40
2018-07-08T10:20:04.684Z,51.70
2018-07-08T10:22:33.849Z,52.30
2018-07-08T10:25:03.163Z,50.20
2018-07-08T10:27:50.262Z,49.80
2018-07-08T10:30:19.491Z,48.50
2018-07-08T10:32:49.062Z,48.70
2018-07-08T10:36:22.932Z,48.50
2018-07-08T10:38:52.083Z,46.80
2018-07-08T10:41:21.340Z,47.40
2018-07-08T10:43:51.429Z,46.30
2018-07-08T10:46:25.083Z,47.10
2018-07-08T10:48:54.505Z,46.20
2018-07-08T10:51:25.232Z,47.40
2018-07-08T10:53:54.418Z,45.70
2018-07-08T10:56:24.824Z,48.50
2018-07-08T10:58:54.098Z,47.70
2018-07-08T11:01:23.446Z,48.70
2018-07-08T11:03:52.776Z,48.80
2018-07-08T11:06:21.889Z,48.90
2018-07-08T11:08:50.928Z,47.50
2018-07-08T11:11:20.692Z,49.80
2018-07-08T11:13:49.961Z,47.00
2018-07-08T11:16:19.080Z,46.00
2018-07-08T11:18:48.591Z,46.70
2018-07-08T11:21:18.734Z,48.10
2018-07-08T11:23:47.985Z,47.70
2018-07-08T11:26:17.633Z,48.00
2018-07-08T11:28:47.682Z,47.60
2018-07-08T11:31:17.380Z,47.90
2018-07-08T11:33:47.260Z,48.70
2018-07-08T11:36:17.388Z,49.30
2018-07-08T11:38:46.610Z,48.70
2018-07-08T11:41:15.958Z,48.20
2018-07-08T11:43:45.192Z,48.20
2018-07-08T11:48:43.858Z,49.10
2018-07-08T11:51:13.188Z,48.70
2018-07-08T11:53:42.855Z,48.60
2018-07-08T11:56:12.034Z,48.70
2018-07-08T11:58:42.301Z,48.60
2018-07-08T12:01:11.523Z,49.40
2018-07-08T12:03:41.678Z,48.50
2018-07-08T12:06:10.835Z,48.40
2018-07-08T12:08:39.885Z,48.20
2018-07-08T12:11:09.027Z,48.60
2018-07-08T12:13:38.650Z,48.50
2018-07-08T12:16:07.961Z,47.90
2018-07-08T12:18:38.029Z,48.20
2018-07-08T12:21:07.770Z,47.20
2018-07-08T12:23:40.129Z,47.70
2018-07-08T12:26:10.448Z,48.40
2018-07-08T12:28:39.556Z,48.40
2018-07-08T12:31:09.476Z,48.90
2018-07-08T12:33:39.517Z,47.20
2018-07-08T12:36:09.550Z,47.50
2018-07-08T12:38:39.081Z,48.00
2018-07-08T12:41:08.915Z,48.10
2018-07-08T12:43:39.781Z,48.80
2018-07-08T12:46:10.846Z,48.50
2018-07-08T12:48:41.684Z,47.00
2018-07-08T12:51:12.262Z,46.70
2018-07-08T12:53:41.331Z,48.20
2018-07-08T12:56:12.412Z,47.90
2018-07-08T12:58:43.106Z,49.50
2018-07-08T13:01:12.345Z,49.10
2018-07-08T13:06:10.404Z,48.60
2018-07-08T13:08:39.617Z,48.60
2018-07-08T13:11:08.790Z,48.40
2018-07-08T13:13:38.209Z,47.50
2018-07-08T13:16:07.621Z,47.30
2018-07-08T13:18:37.253Z,48.40
2018-07-08T13:21:06.579Z,47.60
2018-07-08T13:23:35.689Z,47.00
2018-07-08T13:26:04.967Z,46.10
2018-07-08T13:28:34.101Z,46.20
2018-07-08T13:31:03.528Z,47.90
2018-07-08T13:33:32.637Z,46.00
2018-07-08T13:36:02.271Z,46.80
2018-07-08T13:38:31.497Z,46.40
2018-07-08T13:41:00.840Z,47.00
2018-07-08T13:43:30.424Z,47.00
2018-07-08T13:45:59.710Z,48.30
2018-07-08T13:48:29.062Z,47.60
2018-07-08T13:50:58.386Z,49.30
2018-07-08T13:53:27.923Z,49.20
2018-07-08T13:55:57.287Z,48.20
2018-07-08T13:58:26.880Z,49.40
2018-07-08T14:00:56.148Z,48.20
2018-07-08T14:03:25.974Z,49.10
2018-07-08T14:05:55.345Z,49.30
2018-07-08T14:08:24.645Z,49.30
2018-07-08T14:10:54.626Z,49.20
2018-07-08T14:13:24.794Z,48.40
2018-07-08T14:15:54.908Z,48.60
2018-07-08T14:18:24.558Z,48.30
2018-07-08T14:20:54.010Z,47.50
2018-07-08T14:23:23.424Z,47.40
2018-07-08T14:25:52.621Z,48.30
2018-07-08T14:28:21.862Z,49.00
2018-07-08T14:30:51.101Z,49.90
2018-07-08T14:33:20.330Z,49.80
2018-07-08T14:35:49.653Z,48.90
2018-07-08T14:38:18.897Z,49.20
2018-07-08T14:40:48.075Z,49.00
2018-07-08T14:43:17.823Z,48.40
2018-07-08T14:45:46.998Z,48.70
2018-07-08T14:48:16.197Z,48.60
2018-07-08T14:50:45.329Z,48.70
2018-07-08T14:53:14.630Z,48.50
2018-07-08T14:55:43.772Z,48.40
2018-07-08T14:58:12.906Z,47.80
2018-07-08T15:00:42.073Z,47.30
2018-07-08T15:03:11.297Z,46.90
2018-07-08T15:05:40.436Z,47.60
2018-07-08T15:08:10.559Z,47.50
2018-07-08T15:10:39.683Z,48.50
2018-07-08T15:13:08.956Z,48.00
2018-07-08T15:15:38.131Z,48.00
2018-07-08T15:18:07.293Z,47.40
2018-07-08T15:20:36.496Z,48.00
2018-07-08T15:23:05.569Z,47.90
2018-07-08T15:25:34.569Z,48.50
2018-07-08T15:28:03.752Z,47.60
2018-07-08T15:30:33.387Z,46.00
2018-07-08T15:33:03.994Z,46.20
2018-07-08T15:35:33.217Z,45.00
2018-07-08T15:38:02.431Z,47.10
2018-07-08T15:40:31.800Z,47.80
2018-07-08T15:43:00.894Z,49.20
2018-07-08T15:45:30.014Z,49.90
2018-07-08T15:47:59.098Z,50.20
2018-07-08T15:50:28.854Z,50.30
2018-07-08T15:52:58.222Z,49.50
2018-07-08T15:55:27.374Z,50.60
2018-07-08T15:57:56.524Z,51.70
2018-07-08T16:02:54.600Z,50.70
2018-07-08T16:05:23.673Z,49.70
2018-07-08T16:07:52.904Z,50.20
2018-07-08T16:10:22.210Z,50.40
2018-07-08T16:12:51.382Z,51.70
2018-07-08T16:15:20.656Z,51.70
2018-07-08T16:17:49.893Z,50.70
2018-07-08T16:20:19.130Z,51.50
2018-07-08T16:22:48.968Z,52.40
2018-07-08T16:25:18.424Z,51.20
2018-07-08T16:30:17.014Z,50.20
2018-07-08T16:32:46.788Z,50.20
2018-07-08T16:35:16.485Z,49.60
2018-07-08T16:37:45.679Z,48.90
2018-07-08T16:40:15.703Z,49.50
2018-07-08T16:42:45.553Z,49.20
2018-07-08T16:45:15.187Z,49.10
2018-07-08T16:47:44.608Z,49.70
2018-07-08T16:50:13.915Z,50.00
2018-07-08T16:52:43.282Z,49.80
2018-07-08T16:55:12.728Z,49.10
2018-07-08T16:57:42.157Z,49.50
2018-07-08T17:00:12.850Z,50.10
2018-07-08T17:02:42.333Z,49.80
2018-07-08T17:05:11.518Z,49.00
2018-07-08T17:07:41.617Z,49.30
2018-07-08T17:10:11.603Z,49.60
2018-07-08T17:12:41.068Z,48.50
2018-07-08T17:15:11.832Z,48.60
2018-07-08T17:17:42.569Z,49.70
2018-07-08T17:20:13.779Z,49.10
2018-07-08T17:22:45.763Z,48.50
2018-07-08T17:25:15.952Z,49.20
2018-07-08T17:27:45.928Z,48.20
2018-07-08T17:30:16.674Z,48.80
2018-07-08T17:32:47.449Z,49.00
2018-07-08T17:35:18.674Z,49.70
2018-07-08T17:37:50.016Z,49.60
2018-07-08T17:40:20.058Z,49.60
2018-07-08T17:42:49.909Z,49.90
2018-07-08T17:45:21.067Z,49.60
2018-07-08T17:47:51.384Z,50.30
2018-07-08T17:50:20.844Z,50.50
2018-07-08T17:52:50.497Z,50.80
2018-07-08T17:55:20.704Z,50.80
2018-07-08T17:57:50.563Z,51.30
2018-07-08T18:00:20.203Z,51.80
2018-07-08T18:02:49.860Z,51.70
2018-07-08T18:05:19.762Z,51.80
2018-07-08T18:10:18.942Z,52.30
2018-07-08T18:12:49.028Z,52.70
2018-07-08T18:15:18.698Z,53.60
2018-07-08T18:17:48.151Z,53.50
2018-07-08T18:20:17.758Z,53.60
2018-07-08T18:22:48.051Z,53.10
2018-07-08T18:25:18.837Z,53.20
2018-07-08T18:27:49.392Z,53.90
